Language: 


Des rapports , des résumés tant et plus, au choix de chacun....


Données Historiques de Météogheer
Journalier Rapport pour Février 6, 2018 Unitée:  Les deux    Impériale   Métrique
Suivant Jour »
Journalier Hebdomadaire Mensuel Annuel Sur mesure
  Max: Min: Moyenne:
Température: 35.6 °F /  2.0 °C 28.4 °F /  -2.0 °C 31.5 °F /  -0.3 °C
Point de rosée: 30.2 °F /  -1.0 °C 24.8 °F /  -4.0 °C 26.6 °F /  -3 °C
Humidité: 95% 69% 84%
Vent: 12.3mph /  19.8km/h - 8mph /  12.8km/h
Rafales: 12.5mph /  20.1km/h - -
Vent- - NE
Pression: 30.1 in /  1018.8 hPa 29.9 in /  1012.1 hPa -
Pluie: 0 in /  0.0 mm    
Historical Graphs
 
 
Données tabulaires pour Février 6, 2018
Heure Température Point de rosée Pression Vent Vent Rafales Humidité Pluie Taux (Horaire) Conditions
00:04 32.5 °F /  0.3 °C 30.2 °F /  -1.0 °C 30.1in /  1018.8hPa NE 7.8mph /  12.6km/h 9.2mph /  14.8km/h 90% 0in /  0.0mm
00:09 32.5 °F /  0.3 °C 30.2 °F /  -1.0 °C 30.1in /  1018.8hPa NE 8.1mph /  13.0km/h 9.4mph /  15.1km/h 89% 0in /  0.0mm
00:14 32.5 °F /  0.3 °C 30.2 °F /  -1.0 °C 30.1in /  1018.2hPa NE 8.5mph /  13.7km/h 9.4mph /  15.1km/h 89% 0in /  0.0mm
00:19 32.4 °F /  0.2 °C 30.2 °F /  -1.0 °C 30.1in /  1018.2hPa NE 8.1mph /  13.0km/h 10.5mph /  16.9km/h 89% 0in /  0.0mm
00:24 32.4 °F /  0.2 °C 30.2 °F /  -1.0 °C 30.1in /  1018.2hPa ENE 9.4mph /  15.1km/h 10.7mph /  17.2km/h 89% 0in /  0.0mm
00:29 32.4 °F /  0.2 °C 30.2 °F /  -1.0 °C 30.1in /  1018.2hPa NE 7.4mph /  11.9km/h 10.7mph /  17.2km/h 89% 0in /  0.0mm
00:34 32.4 °F /  0.2 °C 30.2 °F /  -1.0 °C 30.1in /  1018.2hPa ENE 7.6mph /  12.2km/h 9.4mph /  15.1km/h 89% 0in /  0.0mm
00:39 32.4 °F /  0.2 °C 30.2 °F /  -1.0 °C 30.1in /  1018.2hPa ENE 7.6mph /  12.2km/h 7.8mph /  12.6km/h 89% 0in /  0.0mm
00:44 32.4 °F /  0.2 °C 30.2 °F /  -1.0 °C 30.1in /  1018.2hPa ENE 7.6mph /  12.2km/h 7.8mph /  12.6km/h 89% 0in /  0.0mm
00:49 32.4 °F /  0.2 °C 30.2 °F /  -1.0 °C 30.1in /  1018.2hPa ENE 7.6mph /  12.2km/h 7.8mph /  12.6km/h 89% 0in /  0.0mm
00:54 32.2 °F /  0.1 °C 30.2 °F /  -1.0 °C 30.1in /  1018.2hPa ENE 7.6mph /  12.2km/h 7.6mph /  12.2km/h 89% 0in /  0.0mm
00:59 32.2 °F /  0.1 °C 30.2 °F /  -1.0 °C 30in /  1016.8hPa ENE 7.6mph /  12.2km/h 7.6mph /  12.2km/h 88% 0in /  0.0mm
01:04 32.2 °F /  0.1 °C 30.2 °F /  -1.0 °C 30in /  1016.8hPa NE 7.6mph /  12.2km/h 7.6mph /  12.2km/h 88% 0in /  0.0mm
01:09 32 °F /  0.0 °C 26.6 °F /  -3.0 °C 30in /  1016.8hPa NE 7.6mph /  12.2km/h 7.6mph /  12.2km/h 88% 0in /  0.0mm
01:14 32 °F /  0.0 °C 26.6 °F /  -3.0 °C 30in /  1016.8hPa NE 7.6mph /  12.2km/h 7.6mph /  12.2km/h 88% 0in /  0.0mm
01:19 31.8 °F /  -0.1 °C 26.6 °F /  -3.0 °C 30in /  1016.8hPa ENE 5.8mph /  9.3km/h 7.6mph /  12.2km/h 88% 0in /  0.0mm
01:24 31.8 °F /  -0.1 °C 26.6 °F /  -3.0 °C 30in /  1016.8hPa ENE 6mph /  9.7km/h 7.6mph /  12.2km/h 88% 0in /  0.0mm
01:29 31.8 °F /  -0.1 °C 26.6 °F /  -3.0 °C 30in /  1016.1hPa ENE 6mph /  9.7km/h 6.7mph /  10.8km/h 88% 0in /  0.0mm
01:34 31.8 °F /  -0.1 °C 26.6 °F /  -3.0 °C 30in /  1016.1hPa ENE 6mph /  9.7km/h 6mph /  9.7km/h 88% 0in /  0.0mm
01:39 31.8 °F /  -0.1 °C 26.6 °F /  -3.0 °C 30in /  1016.1hPa ENE 6.5mph /  10.5km/h 8.5mph /  13.7km/h 88% 0in /  0.0mm
01:44 31.6 °F /  -0.2 °C 26.6 °F /  -3.0 °C 30in /  1016.8hPa NNE 5.8mph /  9.3km/h 8.5mph /  13.7km/h 88% 0in /  0.0mm
01:50 31.6 °F /  -0.2 °C 26.6 °F /  -3.0 °C 30in /  1016.8hPa NNE 5.8mph /  9.3km/h 6.5mph /  10.5km/h 88% 0in /  0.0mm
01:55 31.6 °F /  -0.2 °C 26.6 °F /  -3.0 °C 30in /  1016.8hPa NNE 5.8mph /  9.3km/h 5.8mph /  9.3km/h 88% 0in /  0.0mm
02:00 31.5 °F /  -0.3 °C 26.6 °F /  -3.0 °C 30in /  1016.8hPa NNE 7.8mph /  12.6km/h 7.8mph /  12.6km/h 88% 0in /  0.0mm
02:05 31.5 °F /  -0.3 °C 26.6 °F /  -3.0 °C 30in /  1016.8hPa NE 5.8mph /  9.3km/h 7.8mph /  12.6km/h 88% 0in /  0.0mm
02:10 31.3 °F /  -0.4 °C 26.6 °F /  -3.0 °C 30in /  1016.8hPa NE 5.8mph /  9.3km/h 7.8mph /  12.6km/h 88% 0in /  0.0mm
02:15 31.3 °F /  -0.4 °C 26.6 °F /  -3.0 °C 30in /  1016.8hPa NE 7.8mph /  12.6km/h 7.8mph /  12.6km/h 88% 0in /  0.0mm
02:20 31.1 °F /  -0.5 °C 26.6 °F /  -3.0 °C 30in /  1016.8hPa NE 7.8mph /  12.6km/h 8.7mph /  14.0km/h 88% 0in /  0.0mm
02:21 31.1 °F /  -0.5 °C 26.6 °F /  -3.0 °C 30in /  1016.8hPa NE 7.8mph /  12.6km/h 8.7mph /  14.0km/h 88% 0in /  0.0mm
02:26 31.1 °F /  -0.5 °C 26.6 °F /  -3.0 °C 30in /  1016.8hPa NE 7.2mph /  11.6km/h 8.7mph /  14.0km/h 88% 0in /  0.0mm
02:31 30.9 °F /  -0.6 °C 26.6 °F /  -3.0 °C 30in /  1016.8hPa ENE 7.4mph /  11.9km/h 7.8mph /  12.6km/h 88% 0in /  0.0mm
02:36 30.9 °F /  -0.6 °C 26.6 °F /  -3.0 °C 30in /  1016.8hPa ENE 6.3mph /  10.1km/h 7.4mph /  11.9km/h 88% 0in /  0.0mm
02:41 30.7 °F /  -0.7 °C 26.6 °F /  -3.0 °C 30in /  1016.8hPa ENE 10.1mph /  16.3km/h 10.1mph /  16.3km/h 88% 0in /  0.0mm
02:46 30.7 °F /  -0.7 °C 26.6 °F /  -3.0 °C 30in /  1016.1hPa NE 8.7mph /  14.0km/h 10.1mph /  16.3km/h 88% 0in /  0.0mm
02:51 30.7 °F /  -0.7 °C 26.6 °F /  -3.0 °C 30in /  1016.1hPa NE 7.8mph /  12.6km/h 10.1mph /  16.3km/h 88% 0in /  0.0mm
02:56 30.6 °F /  -0.8 °C 26.6 °F /  -3.0 °C 30in /  1016.1hPa ENE 10.1mph /  16.3km/h 10.1mph /  16.3km/h 88% 0in /  0.0mm
03:01 30.6 °F /  -0.8 °C 26.6 °F /  -3.0 °C 30in /  1016.1hPa NNE 8.9mph /  14.3km/h 10.1mph /  16.3km/h 88% 0in /  0.0mm
03:06 30.4 °F /  -0.9 °C 26.6 °F /  -3.0 °C 30in /  1016.1hPa ENE 7.6mph /  12.2km/h 10.1mph /  16.3km/h 88% 0in /  0.0mm
03:11 30.4 °F /  -0.9 °C 26.6 °F /  -3.0 °C 30in /  1016.1hPa NE 7.4mph /  11.9km/h 8.9mph /  14.3km/h 88% 0in /  0.0mm
03:16 30.2 °F /  -1.0 °C 26.6 °F /  -3.0 °C 30in /  1015.1hPa NE 8.5mph /  13.7km/h 8.5mph /  13.7km/h 89% 0in /  0.0mm
03:21 30.2 °F /  -1.0 °C 26.6 °F /  -3.0 °C 30in /  1015.1hPa ENE 5.6mph /  9.0km/h 8.5mph /  13.7km/h 89% 0in /  0.0mm
03:26 30 °F /  -1.1 °C 26.6 °F /  -3.0 °C 30in /  1015.1hPa NE 7.8mph /  12.6km/h 9.4mph /  15.1km/h 89% 0in /  0.0mm
03:31 30 °F /  -1.1 °C 26.6 °F /  -3.0 °C 30in /  1015.1hPa ENE 6.3mph /  10.1km/h 9.4mph /  15.1km/h 90% 0in /  0.0mm
03:36 30 °F /  -1.1 °C 26.6 °F /  -3.0 °C 30in /  1015.1hPa ENE 7.6mph /  12.2km/h 9.4mph /  15.1km/h 90% 0in /  0.0mm
03:41 29.8 °F /  -1.2 °C 26.6 °F /  -3.0 °C 30in /  1015.1hPa ENE 5.6mph /  9.0km/h 8.7mph /  14.0km/h 90% 0in /  0.0mm
03:46 29.8 °F /  -1.2 °C 26.6 °F /  -3.0 °C 30in /  1015.1hPa NE 7.4mph /  11.9km/h 8.5mph /  13.7km/h 90% 0in /  0.0mm
03:51 29.7 °F /  -1.3 °C 26.6 °F /  -3.0 °C 30in /  1015.1hPa NE 4.3mph /  6.9km/h 8.7mph /  14.0km/h 90% 0in /  0.0mm
03:56 29.7 °F /  -1.3 °C 26.6 °F /  -3.0 °C 30in /  1015.1hPa ENE 3.8mph /  6.1km/h 8.7mph /  14.0km/h 90% 0in /  0.0mm
04:01 29.5 °F /  -1.4 °C 26.6 °F /  -3.0 °C 30in /  1015.1hPa NE 4mph /  6.4km/h 7.4mph /  11.9km/h 90% 0in /  0.0mm
04:06 29.5 °F /  -1.4 °C 26.6 °F /  -3.0 °C 30in /  1015.1hPa ENE 5.4mph /  8.7km/h 8.1mph /  13.0km/h 90% 0in /  0.0mm
04:11 29.5 °F /  -1.4 °C 26.6 °F /  -3.0 °C 30in /  1015.1hPa ENE 4.3mph /  6.9km/h 8.1mph /  13.0km/h 90% 0in /  0.0mm
04:16 29.3 °F /  -1.5 °C 24.8 °F /  -4.0 °C 30in /  1015.1hPa ENE 5.6mph /  9.0km/h 7.4mph /  11.9km/h 90% 0in /  0.0mm
04:21 29.3 °F /  -1.5 °C 26.6 °F /  -3.0 °C 30in /  1015.1hPa NE 6.5mph /  10.5km/h 7.4mph /  11.9km/h 91% 0in /  0.0mm
04:26 29.3 °F /  -1.5 °C 26.6 °F /  -3.0 °C 30in /  1015.1hPa ENE 5.4mph /  8.7km/h 6.5mph /  10.5km/h 91% 0in /  0.0mm
04:31 29.5 °F /  -1.4 °C 26.6 °F /  -3.0 °C 30in /  1015.1hPa ENE 5.8mph /  9.3km/h 6.5mph /  10.5km/h 91% 0in /  0.0mm
04:36 29.5 °F /  -1.4 °C 26.6 °F /  -3.0 °C 30in /  1015.1hPa NE 8.1mph /  13.0km/h 8.5mph /  13.7km/h 92% 0in /  0.0mm
04:41 29.5 °F /  -1.4 °C 26.6 °F /  -3.0 °C 30in /  1015.1hPa NE 6.5mph /  10.5km/h 8.7mph /  14.0km/h 92% 0in /  0.0mm
04:47 29.7 °F /  -1.3 °C 26.6 °F /  -3.0 °C 30in /  1015.1hPa NE 3.4mph /  5.5km/h 8.7mph /  14.0km/h 92% 0in /  0.0mm
04:52 29.5 °F /  -1.4 °C 26.6 °F /  -3.0 °C 30in /  1015.1hPa ENE 4.9mph /  7.9km/h 8.1mph /  13.0km/h 92% 0in /  0.0mm
04:57 29.5 °F /  -1.4 °C 26.6 °F /  -3.0 °C 30in /  1015.1hPa NNE 6.5mph /  10.5km/h 8.1mph /  13.0km/h 91% 0in /  0.0mm
05:02 29.5 °F /  -1.4 °C 26.6 °F /  -3.0 °C 29.9in /  1014.1hPa ENE 4mph /  6.4km/h 8.5mph /  13.7km/h 91% 0in /  0.0mm
05:07 29.5 °F /  -1.4 °C 26.6 °F /  -3.0 °C 29.9in /  1014.1hPa NE 4.3mph /  6.9km/h 8.5mph /  13.7km/h 91% 0in /  0.0mm
05:12 29.5 °F /  -1.4 °C 26.6 °F /  -3.0 °C 29.9in /  1014.1hPa NNE 6.5mph /  10.5km/h 7.6mph /  12.2km/h 91% 0in /  0.0mm
05:17 29.3 °F /  -1.5 °C 26.6 °F /  -3.0 °C 30in /  1015.1hPa NNE 6.7mph /  10.8km/h 7.6mph /  12.2km/h 92% 0in /  0.0mm
05:22 29.3 °F /  -1.5 °C 26.6 °F /  -3.0 °C 30in /  1015.1hPa NE 8.5mph /  13.7km/h 8.7mph /  14.0km/h 92% 0in /  0.0mm
05:27 29.3 °F /  -1.5 °C 26.6 °F /  -3.0 °C 30in /  1015.1hPa NNE 7.8mph /  12.6km/h 8.7mph /  14.0km/h 92% 0in /  0.0mm
05:32 29.3 °F /  -1.5 °C 26.6 °F /  -3.0 °C 29.9in /  1014.1hPa NE 7.4mph /  11.9km/h 8.5mph /  13.7km/h 92% 0in /  0.0mm
05:37 29.3 °F /  -1.5 °C 26.6 °F /  -3.0 °C 29.9in /  1014.1hPa NNE 3.4mph /  5.5km/h 8.5mph /  13.7km/h 93% 0in /  0.0mm
05:42 29.3 °F /  -1.5 °C 26.6 °F /  -3.0 °C 29.9in /  1014.1hPa NNE 5.8mph /  9.3km/h 7.8mph /  12.6km/h 93% 0in /  0.0mm
05:47 29.3 °F /  -1.5 °C 26.6 °F /  -3.0 °C 30in /  1015.1hPa NNE 4.9mph /  7.9km/h 8.5mph /  13.7km/h 93% 0in /  0.0mm
05:52 29.3 °F /  -1.5 °C 26.6 °F /  -3.0 °C 30in /  1015.1hPa North 6.3mph /  10.1km/h 8.5mph /  13.7km/h 93% 0in /  0.0mm
05:57 29.3 °F /  -1.5 °C 26.6 °F /  -3.0 °C 30in /  1015.1hPa NNE 6.5mph /  10.5km/h 8.5mph /  13.7km/h 93% 0in /  0.0mm
06:02 29.3 °F /  -1.5 °C 26.6 °F /  -3.0 °C 29.9in /  1014.1hPa North 5.8mph /  9.3km/h 10.3mph /  16.6km/h 93% 0in /  0.0mm
06:07 29.3 °F /  -1.5 °C 26.6 °F /  -3.0 °C 29.9in /  1014.1hPa NNE 5.6mph /  9.0km/h 10.3mph /  16.6km/h 93% 0in /  0.0mm
06:12 29.1 °F /  -1.6 °C 26.6 °F /  -3.0 °C 29.9in /  1014.1hPa NNE 9.8mph /  15.8km/h 9.8mph /  15.8km/h 93% 0in /  0.0mm
06:17 29.1 °F /  -1.6 °C 26.6 °F /  -3.0 °C 29.9in /  1014.1hPa NNE 7.8mph /  12.6km/h 9.8mph /  15.8km/h 93% 0in /  0.0mm
06:22 29.1 °F /  -1.6 °C 26.6 °F /  -3.0 °C 29.9in /  1014.1hPa NE 7.6mph /  12.2km/h 9.8mph /  15.8km/h 93% 0in /  0.0mm
06:27 29.1 °F /  -1.6 °C 26.6 °F /  -3.0 °C 29.9in /  1014.1hPa North 6.9mph /  11.1km/h 8.7mph /  14.0km/h 93% 0in /  0.0mm
06:32 29.1 °F /  -1.6 °C 26.6 °F /  -3.0 °C 29.9in /  1014.1hPa ENE 6.5mph /  10.5km/h 8.1mph /  13.0km/h 93% 0in /  0.0mm
06:38 29.1 °F /  -1.6 °C 26.6 °F /  -3.0 °C 29.9in /  1014.1hPa NE 5.4mph /  8.7km/h 8.7mph /  14.0km/h 93% 0in /  0.0mm
06:43 29.1 °F /  -1.6 °C 26.6 °F /  -3.0 °C 29.9in /  1014.1hPa NNE 6.9mph /  11.1km/h 8.7mph /  14.0km/h 93% 0in /  0.0mm
06:48 28.9 °F /  -1.7 °C 26.6 °F /  -3.0 °C 29.9in /  1014.1hPa NNE 6.3mph /  10.1km/h 8.7mph /  14.0km/h 93% 0in /  0.0mm
06:53 28.9 °F /  -1.7 °C 26.6 °F /  -3.0 °C 29.9in /  1014.1hPa NE 8.5mph /  13.7km/h 11.9mph /  19.1km/h 93% 0in /  0.0mm
06:58 28.8 °F /  -1.8 °C 26.6 °F /  -3.0 °C 29.9in /  1014.1hPa NE 8.5mph /  13.7km/h 11.9mph /  19.1km/h 93% 0in /  0.0mm
07:03 28.8 °F /  -1.8 °C 26.6 °F /  -3.0 °C 29.9in /  1014.1hPa NE 8.5mph /  13.7km/h 10.3mph /  16.6km/h 93% 0in /  0.0mm
07:08 28.8 °F /  -1.8 °C 26.6 °F /  -3.0 °C 29.9in /  1014.1hPa NE 8.1mph /  13.0km/h 10.3mph /  16.6km/h 93% 0in /  0.0mm
07:13 28.6 °F /  -1.9 °C 26.6 °F /  -3.0 °C 29.9in /  1014.1hPa NE 7.8mph /  12.6km/h 10.1mph /  16.3km/h 93% 0in /  0.0mm
07:18 28.6 °F /  -1.9 °C 26.6 °F /  -3.0 °C 29.9in /  1014.1hPa NE 8.1mph /  13.0km/h 10.1mph /  16.3km/h 93% 0in /  0.0mm
07:23 28.6 °F /  -1.9 °C 26.6 °F /  -3.0 °C 29.9in /  1014.1hPa ENE 5.6mph /  9.0km/h 10.1mph /  16.3km/h 94% 0in /  0.0mm
07:28 28.6 °F /  -1.9 °C 26.6 °F /  -3.0 °C 29.9in /  1014.1hPa NNE 5.6mph /  9.0km/h 9.8mph /  15.8km/h 94% 0in /  0.0mm
07:33 28.6 °F /  -1.9 °C 26.6 °F /  -3.0 °C 29.9in /  1014.1hPa NNE 8.5mph /  13.7km/h 9.4mph /  15.1km/h 94% 0in /  0.0mm
07:38 28.6 °F /  -1.9 °C 26.6 °F /  -3.0 °C 29.9in /  1014.1hPa NNE 6.3mph /  10.1km/h 8.7mph /  14.0km/h 94% 0in /  0.0mm
07:43 28.6 °F /  -1.9 °C 26.6 °F /  -3.0 °C 29.9in /  1014.1hPa NNE 7.6mph /  12.2km/h 8.7mph /  14.0km/h 94% 0in /  0.0mm
07:48 28.4 °F /  -2.0 °C 26.6 °F /  -3.0 °C 29.9in /  1014.1hPa North 9.6mph /  15.4km/h 9.6mph /  15.4km/h 95% 0in /  0.0mm
07:53 28.4 °F /  -2.0 °C 26.6 °F /  -3.0 °C 29.9in /  1014.1hPa NNE 7.4mph /  11.9km/h 9.6mph /  15.4km/h 95% 0in /  0.0mm
07:58 28.4 °F /  -2.0 °C 26.6 °F /  -3.0 °C 29.9in /  1014.1hPa NNE 7.4mph /  11.9km/h 8.5mph /  13.7km/h 95% 0in /  0.0mm
08:03 28.4 °F /  -2.0 °C 26.6 °F /  -3.0 °C 29.9in /  1014.1hPa NNE 7.4mph /  11.9km/h 7.4mph /  11.9km/h 95% 0in /  0.0mm
08:08 28.4 °F /  -2.0 °C 26.6 °F /  -3.0 °C 29.9in /  1014.1hPa NE 6mph /  9.7km/h 7.4mph /  11.9km/h 95% 0in /  0.0mm
08:13 28.4 °F /  -2.0 °C 26.6 °F /  -3.0 °C 29.9in /  1014.1hPa NNE 8.1mph /  13.0km/h 9.8mph /  15.8km/h 95% 0in /  0.0mm
08:18 28.6 °F /  -1.9 °C 26.6 °F /  -3.0 °C 29.9in /  1014.1hPa NE 8.7mph /  14.0km/h 9.8mph /  15.8km/h 94% 0in /  0.0mm
08:23 28.6 °F /  -1.9 °C 26.6 °F /  -3.0 °C 29.9in /  1014.1hPa NE 8.5mph /  13.7km/h 8.7mph /  14.0km/h 94% 0in /  0.0mm
08:28 28.6 °F /  -1.9 °C 26.6 °F /  -3.0 °C 29.9in /  1014.1hPa NE 8.5mph /  13.7km/h 8.7mph /  14.0km/h 93% 0in /  0.0mm
08:33 28.6 °F /  -1.9 °C 26.6 °F /  -3.0 °C 29.9in /  1014.1hPa NE 10.1mph /  16.3km/h 10.1mph /  16.3km/h 93% 0in /  0.0mm
08:38 28.6 °F /  -1.9 °C 26.6 °F /  -3.0 °C 29.9in /  1014.1hPa NE 8.7mph /  14.0km/h 10.1mph /  16.3km/h 93% 0in /  0.0mm
08:43 28.8 °F /  -1.8 °C 26.6 °F /  -3.0 °C 29.9in /  1014.1hPa NE 8.7mph /  14.0km/h 10.1mph /  16.3km/h 92% 0in /  0.0mm
08:48 28.8 °F /  -1.8 °C 26.6 °F /  -3.0 °C 29.9in /  1014.1hPa NNE 6.5mph /  10.5km/h 8.7mph /  14.0km/h 92% 0in /  0.0mm
08:53 28.8 °F /  -1.8 °C 26.6 °F /  -3.0 °C 29.9in /  1014.1hPa NNE 6.5mph /  10.5km/h 8.7mph /  14.0km/h 92% 0in /  0.0mm
08:59 28.9 °F /  -1.7 °C 26.6 °F /  -3.0 °C 29.9in /  1014.1hPa NNE 8.5mph /  13.7km/h 10.5mph /  16.9km/h 92% 0in /  0.0mm
09:04 28.9 °F /  -1.7 °C 26.6 °F /  -3.0 °C 29.9in /  1014.1hPa NNE 8.5mph /  13.7km/h 10.5mph /  16.9km/h 91% 0in /  0.0mm
09:09 28.9 °F /  -1.7 °C 26.6 °F /  -3.0 °C 29.9in /  1014.1hPa NE 8.7mph /  14.0km/h 8.7mph /  14.0km/h 91% 0in /  0.0mm
09:14 28.9 °F /  -1.7 °C 26.6 °F /  -3.0 °C 29.9in /  1014.1hPa NE 8.7mph /  14.0km/h 8.7mph /  14.0km/h 91% 0in /  0.0mm
09:19 29.1 °F /  -1.6 °C 26.6 °F /  -3.0 °C 29.9in /  1014.1hPa NE 8.7mph /  14.0km/h 8.7mph /  14.0km/h 91% 0in /  0.0mm
09:24 29.1 °F /  -1.6 °C 24.8 °F /  -4.0 °C 29.9in /  1014.1hPa NE 8.7mph /  14.0km/h 8.7mph /  14.0km/h 90% 0in /  0.0mm
09:29 29.1 °F /  -1.6 °C 24.8 °F /  -4.0 °C 29.9in /  1014.1hPa NE 8.7mph /  14.0km/h 8.7mph /  14.0km/h 90% 0in /  0.0mm
09:34 29.1 °F /  -1.6 °C 24.8 °F /  -4.0 °C 29.9in /  1014.1hPa NE 8.7mph /  14.0km/h 8.7mph /  14.0km/h 90% 0in /  0.0mm
09:39 29.1 °F /  -1.6 °C 24.8 °F /  -4.0 °C 29.9in /  1014.1hPa NNE 8.7mph /  14.0km/h 8.7mph /  14.0km/h 90% 0in /  0.0mm
09:44 29.1 °F /  -1.6 °C 24.8 °F /  -4.0 °C 29.9in /  1014.1hPa NE 10.1mph /  16.3km/h 10.1mph /  16.3km/h 90% 0in /  0.0mm
09:49 29.1 °F /  -1.6 °C 24.8 °F /  -4.0 °C 29.9in /  1014.1hPa NE 8.7mph /  14.0km/h 10.1mph /  16.3km/h 90% 0in /  0.0mm
09:54 29.3 °F /  -1.5 °C 24.8 °F /  -4.0 °C 29.9in /  1014.1hPa NNE 8.7mph /  14.0km/h 10.5mph /  16.9km/h 89% 0in /  0.0mm
09:59 29.5 °F /  -1.4 °C 26.6 °F /  -3.0 °C 29.9in /  1014.1hPa NNE 8.7mph /  14.0km/h 10.5mph /  16.9km/h 89% 0in /  0.0mm
10:04 29.5 °F /  -1.4 °C 26.6 °F /  -3.0 °C 29.9in /  1014.1hPa NNE 8.7mph /  14.0km/h 10.1mph /  16.3km/h 89% 0in /  0.0mm
10:10 29.7 °F /  -1.3 °C 26.6 °F /  -3.0 °C 29.9in /  1014.1hPa NE 8.5mph /  13.7km/h 8.7mph /  14.0km/h 89% 0in /  0.0mm
10:15 29.8 °F /  -1.2 °C 26.6 °F /  -3.0 °C 29.9in /  1014.1hPa NE 8.5mph /  13.7km/h 8.7mph /  14.0km/h 89% 0in /  0.0mm
10:20 30 °F /  -1.1 °C 26.6 °F /  -3.0 °C 29.9in /  1014.1hPa NE 8.5mph /  13.7km/h 8.5mph /  13.7km/h 88% 0in /  0.0mm
10:25 30 °F /  -1.1 °C 26.6 °F /  -3.0 °C 29.9in /  1014.1hPa NE 8.5mph /  13.7km/h 8.5mph /  13.7km/h 88% 0in /  0.0mm
10:30 30.2 °F /  -1.0 °C 26.6 °F /  -3.0 °C 29.9in /  1014.1hPa NE 8.5mph /  13.7km/h 8.5mph /  13.7km/h 87% 0in /  0.0mm
10:35 30.2 °F /  -1.0 °C 26.6 °F /  -3.0 °C 29.9in /  1014.1hPa NE 10.5mph /  16.9km/h 12.5mph /  20.1km/h 87% 0in /  0.0mm
10:40 30.2 °F /  -1.0 °C 24.8 °F /  -4.0 °C 29.9in /  1014.1hPa ENE 7.6mph /  12.2km/h 12.5mph /  20.1km/h 86% 0in /  0.0mm
10:45 30.2 °F /  -1.0 °C 24.8 °F /  -4.0 °C 29.9in /  1014.1hPa NNE 7.8mph /  12.6km/h 10.5mph /  16.9km/h 86% 0in /  0.0mm
10:50 30.6 °F /  -0.8 °C 24.8 °F /  -4.0 °C 29.9in /  1014.1hPa NNE 7.8mph /  12.6km/h 10.3mph /  16.6km/h 85% 0in /  0.0mm
10:55 30.7 °F /  -0.7 °C 26.6 °F /  -3.0 °C 29.9in /  1014.1hPa NNE 7.8mph /  12.6km/h 7.8mph /  12.6km/h 85% 0in /  0.0mm
11:00 31.1 °F /  -0.5 °C 26.6 °F /  -3.0 °C 29.9in /  1014.1hPa NE 9.4mph /  15.1km/h 9.4mph /  15.1km/h 85% 0in /  0.0mm
11:05 31.3 °F /  -0.4 °C 24.8 °F /  -4.0 °C 29.9in /  1014.1hPa NE 9.4mph /  15.1km/h 9.4mph /  15.1km/h 83% 0in /  0.0mm
11:10 31.3 °F /  -0.4 °C 24.8 °F /  -4.0 °C 29.9in /  1014.1hPa NE 9.4mph /  15.1km/h 9.4mph /  15.1km/h 82% 0in /  0.0mm
11:15 31.5 °F /  -0.3 °C 24.8 °F /  -4.0 °C 29.9in /  1014.1hPa NE 9.4mph /  15.1km/h 9.4mph /  15.1km/h 81% 0in /  0.0mm
11:20 31.3 °F /  -0.4 °C 24.8 °F /  -4.0 °C 29.9in /  1014.1hPa NE 9.4mph /  15.1km/h 9.4mph /  15.1km/h 80% 0in /  0.0mm
11:25 31.3 °F /  -0.4 °C 24.8 °F /  -4.0 °C 29.9in /  1014.1hPa NE 9.4mph /  15.1km/h 9.4mph /  15.1km/h 79% 0in /  0.0mm
11:30 31.6 °F /  -0.2 °C 24.8 °F /  -4.0 °C 29.9in /  1014.1hPa NNE 10.5mph /  16.9km/h 10.5mph /  16.9km/h 80% 0in /  0.0mm
11:35 32 °F /  0.0 °C 24.8 °F /  -4.0 °C 29.9in /  1014.1hPa NNE 10.5mph /  16.9km/h 10.5mph /  16.9km/h 80% 0in /  0.0mm
11:40 32.2 °F /  0.1 °C 26.6 °F /  -3.0 °C 29.9in /  1014.1hPa NNE 10.5mph /  16.9km/h 10.5mph /  16.9km/h 80% 0in /  0.0mm
11:45 32.4 °F /  0.2 °C 26.6 °F /  -3.0 °C 29.9in /  1014.1hPa NNE 10.5mph /  16.9km/h 10.5mph /  16.9km/h 80% 0in /  0.0mm
11:51 32.5 °F /  0.3 °C 26.6 °F /  -3.0 °C 29.9in /  1014.1hPa NNE 10.1mph /  16.3km/h 10.5mph /  16.9km/h 79% 0in /  0.0mm
11:56 32.7 °F /  0.4 °C 26.6 °F /  -3.0 °C 29.9in /  1014.1hPa NNE 10.5mph /  16.9km/h 10.5mph /  16.9km/h 79% 0in /  0.0mm
12:01 32.7 °F /  0.4 °C 28.4 °F /  -2.0 °C 29.9in /  1013.1hPa NNE 8.7mph /  14.0km/h 11mph /  17.7km/h 80% 0in /  0.0mm
12:06 32.5 °F /  0.3 °C 26.6 °F /  -3.0 °C 29.9in /  1013.1hPa NE 8.5mph /  13.7km/h 11mph /  17.7km/h 79% 0in /  0.0mm
12:11 32.4 °F /  0.2 °C 26.6 °F /  -3.0 °C 29.9in /  1013.1hPa NE 8.5mph /  13.7km/h 10.5mph /  16.9km/h 79% 0in /  0.0mm
12:16 32.4 °F /  0.2 °C 26.6 °F /  -3.0 °C 29.9in /  1014.1hPa NE 8.5mph /  13.7km/h 8.5mph /  13.7km/h 79% 0in /  0.0mm
12:21 32.5 °F /  0.3 °C 26.6 °F /  -3.0 °C 29.9in /  1014.1hPa NE 12.3mph /  19.8km/h 12.3mph /  19.8km/h 79% 0in /  0.0mm
12:26 32.7 °F /  0.4 °C 28.4 °F /  -2.0 °C 29.9in /  1014.1hPa NE 12.3mph /  19.8km/h 12.3mph /  19.8km/h 80% 0in /  0.0mm
12:31 32.7 °F /  0.4 °C 28.4 °F /  -2.0 °C 29.9in /  1013.1hPa NE 12.3mph /  19.8km/h 12.3mph /  19.8km/h 80% 0in /  0.0mm
12:36 32.7 °F /  0.4 °C 26.6 °F /  -3.0 °C 29.9in /  1013.1hPa NE 12.3mph /  19.8km/h 12.3mph /  19.8km/h 79% 0in /  0.0mm
12:41 32.7 °F /  0.4 °C 26.6 °F /  -3.0 °C 29.9in /  1013.1hPa NE 12.3mph /  19.8km/h 12.3mph /  19.8km/h 79% 0in /  0.0mm
12:46 32.7 °F /  0.4 °C 26.6 °F /  -3.0 °C 29.9in /  1013.1hPa NE 12.3mph /  19.8km/h 12.3mph /  19.8km/h 79% 0in /  0.0mm
12:51 32.9 °F /  0.5 °C 28.4 °F /  -2.0 °C 29.9in /  1013.1hPa NE 12.3mph /  19.8km/h 12.3mph /  19.8km/h 79% 0in /  0.0mm
12:56 33.3 °F /  0.7 °C 28.4 °F /  -2.0 °C 29.9in /  1013.1hPa NE 12.3mph /  19.8km/h 12.3mph /  19.8km/h 79% 0in /  0.0mm
13:01 33.3 °F /  0.7 °C 26.6 °F /  -3.0 °C 29.9in /  1013.1hPa NE 12.3mph /  19.8km/h 12.3mph /  19.8km/h 78% 0in /  0.0mm
13:06 33.1 °F /  0.6 °C 26.6 °F /  -3.0 °C 29.9in /  1013.1hPa NE 12.3mph /  19.8km/h 12.3mph /  19.8km/h 77% 0in /  0.0mm
13:11 33.3 °F /  0.7 °C 26.6 °F /  -3.0 °C 29.9in /  1013.1hPa NE 12.3mph /  19.8km/h 12.3mph /  19.8km/h 78% 0in /  0.0mm
13:16 33.4 °F /  0.8 °C 28.4 °F /  -2.0 °C 29.9in /  1012.1hPa NE 12.3mph /  19.8km/h 12.3mph /  19.8km/h 78% 0in /  0.0mm
13:21 33.8 °F /  1.0 °C 28.4 °F /  -2.0 °C 29.9in /  1012.1hPa NE 12.3mph /  19.8km/h 12.3mph /  19.8km/h 77% 0in /  0.0mm
13:26 34 °F /  1.1 °C 28.4 °F /  -2.0 °C 29.9in /  1012.1hPa NE 12.3mph /  19.8km/h 12.3mph /  19.8km/h 77% 0in /  0.0mm
13:31 34.5 °F /  1.4 °C 28.4 °F /  -2.0 °C 29.9in /  1013.1hPa NE 12.3mph /  19.8km/h 12.3mph /  19.8km/h 76% 0in /  0.0mm
13:36 34.5 °F /  1.4 °C 28.4 °F /  -2.0 °C 29.9in /  1013.1hPa NE 12.3mph /  19.8km/h 12.3mph /  19.8km/h 75% 0in /  0.0mm
13:41 34.3 °F /  1.3 °C 26.6 °F /  -3.0 °C 29.9in /  1013.1hPa NE 12.3mph /  19.8km/h 12.3mph /  19.8km/h 74% 0in /  0.0mm
13:46 34.3 °F /  1.3 °C 28.4 °F /  -2.0 °C 29.9in /  1013.1hPa NE 12.3mph /  19.8km/h 12.3mph /  19.8km/h 75% 0in /  0.0mm
13:51 34.2 °F /  1.2 °C 28.4 °F /  -2.0 °C 29.9in /  1013.1hPa NE 12.3mph /  19.8km/h 12.3mph /  19.8km/h 75% 0in /  0.0mm
13:56 34.2 °F /  1.2 °C 28.4 °F /  -2.0 °C 29.9in /  1013.1hPa NE 12.3mph /  19.8km/h 12.3mph /  19.8km/h 75% 0in /  0.0mm
14:01 34.3 °F /  1.3 °C 28.4 °F /  -2.0 °C 29.9in /  1013.1hPa NE 12.3mph /  19.8km/h 12.3mph /  19.8km/h 75% 0in /  0.0mm
14:06 34.7 °F /  1.5 °C 28.4 °F /  -2.0 °C 29.9in /  1013.1hPa NE 12.3mph /  19.8km/h 12.3mph /  19.8km/h 75% 0in /  0.0mm
14:12 35.1 °F /  1.7 °C 28.4 °F /  -2.0 °C 29.9in /  1013.1hPa NE 12.3mph /  19.8km/h 12.3mph /  19.8km/h 74% 0in /  0.0mm
14:17 35.2 °F /  1.8 °C 26.6 °F /  -3.0 °C 29.9in /  1013.1hPa NE 12.3mph /  19.8km/h 12.3mph /  19.8km/h 73% 0in /  0.0mm
14:22 35.1 °F /  1.7 °C 26.6 °F /  -3.0 °C 29.9in /  1013.1hPa NE 12.3mph /  19.8km/h 12.3mph /  19.8km/h 72% 0in /  0.0mm
14:27 34.9 °F /  1.6 °C 26.6 °F /  -3.0 °C 29.9in /  1013.1hPa NE 12.3mph /  19.8km/h 12.3mph /  19.8km/h 71% 0in /  0.0mm
14:32 34.9 °F /  1.6 °C 26.6 °F /  -3.0 °C 29.9in /  1013.1hPa NE 12.3mph /  19.8km/h 12.3mph /  19.8km/h 73% 0in /  0.0mm
14:37 34.7 °F /  1.5 °C 26.6 °F /  -3.0 °C 29.9in /  1013.1hPa NE 12.3mph /  19.8km/h 12.3mph /  19.8km/h 73% 0in /  0.0mm
14:42 34.5 °F /  1.4 °C 26.6 °F /  -3.0 °C 29.9in /  1013.1hPa NE 12.3mph /  19.8km/h 12.3mph /  19.8km/h 73% 0in /  0.0mm
14:47 34.7 °F /  1.5 °C 26.6 °F /  -3.0 °C 29.9in /  1012.1hPa NE 12.3mph /  19.8km/h 12.3mph /  19.8km/h 73% 0in /  0.0mm
14:52 34.7 °F /  1.5 °C 26.6 °F /  -3.0 °C 29.9in /  1012.1hPa NE 12.3mph /  19.8km/h 12.3mph /  19.8km/h 72% 0in /  0.0mm
14:57 34.7 °F /  1.5 °C 26.6 °F /  -3.0 °C 29.9in /  1012.1hPa NE 12.3mph /  19.8km/h 12.3mph /  19.8km/h 72% 0in /  0.0mm
15:02 34.7 °F /  1.5 °C 26.6 °F /  -3.0 °C 29.9in /  1012.1hPa NE 12.3mph /  19.8km/h 12.3mph /  19.8km/h 71% 0in /  0.0mm
15:07 35.2 °F /  1.8 °C 26.6 °F /  -3.0 °C 29.9in /  1012.1hPa NE 12.3mph /  19.8km/h 12.3mph /  19.8km/h 71% 0in /  0.0mm
15:12 35.4 °F /  1.9 °C 26.6 °F /  -3.0 °C 29.9in /  1012.1hPa NE 12.3mph /  19.8km/h 12.3mph /  19.8km/h 71% 0in /  0.0mm
15:17 35.2 °F /  1.8 °C 26.6 °F /  -3.0 °C 29.9in /  1012.1hPa NE 12.3mph /  19.8km/h 12.3mph /  19.8km/h 70% 0in /  0.0mm
15:22 35.1 °F /  1.7 °C 26.6 °F /  -3.0 °C 29.9in /  1012.1hPa NE 12.3mph /  19.8km/h 12.3mph /  19.8km/h 71% 0in /  0.0mm
15:27 35.1 °F /  1.7 °C 26.6 °F /  -3.0 °C 29.9in /  1012.1hPa NE 12.3mph /  19.8km/h 12.3mph /  19.8km/h 72% 0in /  0.0mm
15:32 34.9 °F /  1.6 °C 26.6 °F /  -3.0 °C 29.9in /  1012.1hPa NE 12.3mph /  19.8km/h 12.3mph /  19.8km/h 72% 0in /  0.0mm
15:37 35.2 °F /  1.8 °C 26.6 °F /  -3.0 °C 29.9in /  1012.1hPa NE 12.3mph /  19.8km/h 12.3mph /  19.8km/h 71% 0in /  0.0mm
15:42 35.6 °F /  2.0 °C 28.4 °F /  -2.0 °C 29.9in /  1012.1hPa NE 12.3mph /  19.8km/h 12.3mph /  19.8km/h 72% 0in /  0.0mm
15:47 35.6 °F /  2.0 °C 28.4 °F /  -2.0 °C 29.9in /  1012.1hPa NE 9.8mph /  15.8km/h 9.8mph /  15.8km/h 71% 0in /  0.0mm
15:52 35.4 °F /  1.9 °C 26.6 °F /  -3.0 °C 29.9in /  1012.1hPa NE 9.8mph /  15.8km/h 9.8mph /  15.8km/h 70% 0in /  0.0mm
15:57 35.2 °F /  1.8 °C 26.6 °F /  -3.0 °C 29.9in /  1012.1hPa NE 9.8mph /  15.8km/h 9.8mph /  15.8km/h 70% 0in /  0.0mm
16:02 35.1 °F /  1.7 °C 26.6 °F /  -3.0 °C 29.9in /  1012.1hPa NE 9.8mph /  15.8km/h 9.8mph /  15.8km/h 70% 0in /  0.0mm
16:07 35.2 °F /  1.8 °C 26.6 °F /  -3.0 °C 29.9in /  1012.1hPa NNE 10.1mph /  16.3km/h 10.1mph /  16.3km/h 69% 0in /  0.0mm
16:12 35.2 °F /  1.8 °C 26.6 °F /  -3.0 °C 29.9in /  1012.1hPa NNE 10.1mph /  16.3km/h 10.1mph /  16.3km/h 70% 0in /  0.0mm
16:17 35.1 °F /  1.7 °C 26.6 °F /  -3.0 °C 29.9in /  1012.1hPa NNE 10.1mph /  16.3km/h 10.1mph /  16.3km/h 69% 0in /  0.0mm
16:22 34.9 °F /  1.6 °C 26.6 °F /  -3.0 °C 29.9in /  1012.1hPa NNE 10.1mph /  16.3km/h 10.1mph /  16.3km/h 69% 0in /  0.0mm
16:34 34.9 °F /  1.6 °C 26.6 °F /  -3.0 °C 29.9in /  1012.1hPa NNE 10.1mph /  16.3km/h 10.1mph /  16.3km/h 70% 0in /  0.0mm
16:39 34.7 °F /  1.5 °C 26.6 °F /  -3.0 °C 29.9in /  1012.1hPa NNE 10.1mph /  16.3km/h 10.1mph /  16.3km/h 70% 0in /  0.0mm
16:44 34.7 °F /  1.5 °C 26.6 °F /  -3.0 °C 29.9in /  1013.1hPa NNE 10.1mph /  16.3km/h 10.1mph /  16.3km/h 71% 0in /  0.0mm
16:49 34.7 °F /  1.5 °C 26.6 °F /  -3.0 °C 29.9in /  1013.1hPa NNE 10.1mph /  16.3km/h 10.1mph /  16.3km/h 72% 0in /  0.0mm
16:54 34.5 °F /  1.4 °C 26.6 °F /  -3.0 °C 29.9in /  1013.1hPa North 8.1mph /  13.0km/h 8.1mph /  13.0km/h 72% 0in /  0.0mm
16:59 34.5 °F /  1.4 °C 26.6 °F /  -3.0 °C 29.9in /  1012.1hPa NE 8.7mph /  14.0km/h 10.3mph /  16.6km/h 72% 0in /  0.0mm
17:04 34.3 °F /  1.3 °C 26.6 °F /  -3.0 °C 29.9in /  1012.1hPa NE 7.6mph /  12.2km/h 10.3mph /  16.6km/h 72% 0in /  0.0mm
17:09 34.3 °F /  1.3 °C 26.6 °F /  -3.0 °C 29.9in /  1012.1hPa NE 7.6mph /  12.2km/h 9.6mph /  15.4km/h 72% 0in /  0.0mm
17:14 34.2 °F /  1.2 °C 26.6 °F /  -3.0 °C 29.9in /  1013.1hPa NE 7.6mph /  12.2km/h 7.6mph /  12.2km/h 72% 0in /  0.0mm
17:19 34.2 °F /  1.2 °C 26.6 °F /  -3.0 °C 29.9in /  1013.1hPa NE 7.6mph /  12.2km/h 7.6mph /  12.2km/h 72% 0in /  0.0mm
17:24 34 °F /  1.1 °C 26.6 °F /  -3.0 °C 29.9in /  1013.1hPa NE 7.6mph /  12.2km/h 7.6mph /  12.2km/h 72% 0in /  0.0mm
17:29 34 °F /  1.1 °C 26.6 °F /  -3.0 °C 29.9in /  1013.1hPa NE 7.6mph /  12.2km/h 7.6mph /  12.2km/h 72% 0in /  0.0mm
17:34 33.8 °F /  1.0 °C 26.6 °F /  -3.0 °C 29.9in /  1013.1hPa NE 7.6mph /  12.2km/h 7.6mph /  12.2km/h 73% 0in /  0.0mm
17:39 33.6 °F /  0.9 °C 26.6 °F /  -3.0 °C 29.9in /  1013.1hPa NE 7.6mph /  12.2km/h 7.6mph /  12.2km/h 74% 0in /  0.0mm
17:44 33.4 °F /  0.8 °C 26.6 °F /  -3.0 °C 29.9in /  1013.1hPa NE 7.6mph /  12.2km/h 7.6mph /  12.2km/h 74% 0in /  0.0mm
17:50 33.4 °F /  0.8 °C 26.6 °F /  -3.0 °C 29.9in /  1013.1hPa NE 7.6mph /  12.2km/h 7.6mph /  12.2km/h 75% 0in /  0.0mm
17:55 33.4 °F /  0.8 °C 26.6 °F /  -3.0 °C 29.9in /  1013.1hPa NE 7.6mph /  12.2km/h 7.6mph /  12.2km/h 75% 0in /  0.0mm
18:00 33.3 °F /  0.7 °C 26.6 °F /  -3.0 °C 29.9in /  1013.1hPa NE 5.4mph /  8.7km/h 5.4mph /  8.7km/h 76% 0in /  0.0mm
18:05 33.3 °F /  0.7 °C 26.6 °F /  -3.0 °C 29.9in /  1013.1hPa NE 5.4mph /  8.7km/h 5.4mph /  8.7km/h 76% 0in /  0.0mm
18:10 33.3 °F /  0.7 °C 26.6 °F /  -3.0 °C 29.9in /  1013.1hPa NE 5.4mph /  8.7km/h 5.4mph /  8.7km/h 77% 0in /  0.0mm
18:15 33.1 °F /  0.6 °C 26.6 °F /  -3.0 °C 29.9in /  1013.1hPa NE 5.4mph /  8.7km/h 5.4mph /  8.7km/h 77% 0in /  0.0mm
18:20 33.1 °F /  0.6 °C 26.6 °F /  -3.0 °C 29.9in /  1013.1hPa NE 5.4mph /  8.7km/h 5.4mph /  8.7km/h 78% 0in /  0.0mm
18:25 33.1 °F /  0.6 °C 26.6 °F /  -3.0 °C 29.9in /  1013.1hPa NE 5.4mph /  8.7km/h 5.4mph /  8.7km/h 78% 0in /  0.0mm
18:30 33.1 °F /  0.6 °C 26.6 °F /  -3.0 °C 29.9in /  1013.1hPa NE 5.4mph /  8.7km/h 5.4mph /  8.7km/h 78% 0in /  0.0mm
18:35 33.1 °F /  0.6 °C 26.6 °F /  -3.0 °C 29.9in /  1013.1hPa NE 5.4mph /  8.7km/h 5.4mph /  8.7km/h 78% 0in /  0.0mm
18:40 32.9 °F /  0.5 °C 26.6 °F /  -3.0 °C 29.9in /  1013.1hPa NE 5.4mph /  8.7km/h 5.4mph /  8.7km/h 78% 0in /  0.0mm
18:45 32.9 °F /  0.5 °C 26.6 °F /  -3.0 °C 29.9in /  1013.1hPa NE 5.4mph /  8.7km/h 5.4mph /  8.7km/h 78% 0in /  0.0mm
18:50 32.9 °F /  0.5 °C 26.6 °F /  -3.0 °C 29.9in /  1013.1hPa NE 5.4mph /  8.7km/h 5.4mph /  8.7km/h 78% 0in /  0.0mm
18:55 32.9 °F /  0.5 °C 26.6 °F /  -3.0 °C 29.9in /  1013.1hPa NE 5.4mph /  8.7km/h 5.4mph /  8.7km/h 78% 0in /  0.0mm
19:00 32.9 °F /  0.5 °C 26.6 °F /  -3.0 °C 29.9in /  1013.1hPa NE 5.4mph /  8.7km/h 5.4mph /  8.7km/h 78% 0in /  0.0mm
19:05 32.7 °F /  0.4 °C 26.6 °F /  -3.0 °C 29.9in /  1013.1hPa NE 5.4mph /  8.7km/h 5.4mph /  8.7km/h 78% 0in /  0.0mm
19:10 32.7 °F /  0.4 °C 26.6 °F /  -3.0 °C 29.9in /  1013.1hPa NE 5.4mph /  8.7km/h 5.4mph /  8.7km/h 78% 0in /  0.0mm
19:15 32.5 °F /  0.3 °C 26.6 °F /  -3.0 °C 29.9in /  1013.1hPa NE 5.4mph /  8.7km/h 5.4mph /  8.7km/h 78% 0in /  0.0mm
19:20 32.5 °F /  0.3 °C 26.6 °F /  -3.0 °C 29.9in /  1013.1hPa NE 5.4mph /  8.7km/h 5.4mph /  8.7km/h 78% 0in /  0.0mm
19:25 32.5 °F /  0.3 °C 26.6 °F /  -3.0 °C 29.9in /  1013.1hPa NE 5.4mph /  8.7km/h 5.4mph /  8.7km/h 78% 0in /  0.0mm
19:30 32.4 °F /  0.2 °C 26.6 °F /  -3.0 °C 29.9in /  1013.1hPa NE 5.4mph /  8.7km/h 5.4mph /  8.7km/h 78% 0in /  0.0mm
19:35 32.4 °F /  0.2 °C 26.6 °F /  -3.0 °C 29.9in /  1013.1hPa NE 5.4mph /  8.7km/h 5.4mph /  8.7km/h 79% 0in /  0.0mm
19:40 32.2 °F /  0.1 °C 26.6 °F /  -3.0 °C 29.9in /  1013.1hPa NE 5.4mph /  8.7km/h 5.4mph /  8.7km/h 79% 0in /  0.0mm
19:45 32.2 °F /  0.1 °C 26.6 °F /  -3.0 °C 29.9in /  1013.1hPa NE 5.4mph /  8.7km/h 5.4mph /  8.7km/h 80% 0in /  0.0mm
19:50 32 °F /  0.0 °C 24.8 °F /  -4.0 °C 29.9in /  1013.1hPa NE 5.4mph /  8.7km/h 5.4mph /  8.7km/h 80% 0in /  0.0mm
19:55 31.8 °F /  -0.1 °C 24.8 °F /  -4.0 °C 29.9in /  1013.1hPa NE 5.4mph /  8.7km/h 5.4mph /  8.7km/h 81% 0in /  0.0mm
20:00 31.6 °F /  -0.2 °C 24.8 °F /  -4.0 °C 29.9in /  1013.1hPa NE 5.4mph /  8.7km/h 5.4mph /  8.7km/h 81% 0in /  0.0mm
20:05 31.5 °F /  -0.3 °C 24.8 °F /  -4.0 °C 29.9in /  1013.1hPa NE 5.4mph /  8.7km/h 5.4mph /  8.7km/h 82% 0in /  0.0mm
20:10 31.3 °F /  -0.4 °C 24.8 °F /  -4.0 °C 29.9in /  1013.1hPa NE 5.4mph /  8.7km/h 5.4mph /  8.7km/h 82% 0in /  0.0mm
20:15 31.3 °F /  -0.4 °C 24.8 °F /  -4.0 °C 29.9in /  1013.1hPa NE 5.4mph /  8.7km/h 5.4mph /  8.7km/h 83% 0in /  0.0mm
20:20 31.1 °F /  -0.5 °C 24.8 °F /  -4.0 °C 29.9in /  1013.1hPa NE 5.4mph /  8.7km/h 5.4mph /  8.7km/h 83% 0in /  0.0mm
20:25 31.1 °F /  -0.5 °C 24.8 °F /  -4.0 °C 29.9in /  1013.1hPa NE 5.4mph /  8.7km/h 5.4mph /  8.7km/h 84% 0in /  0.0mm
20:30 31.1 °F /  -0.5 °C 24.8 °F /  -4.0 °C 29.9in /  1013.1hPa NE 5.4mph /  8.7km/h 5.4mph /  8.7km/h 84% 0in /  0.0mm
20:35 31.1 °F /  -0.5 °C 24.8 °F /  -4.0 °C 29.9in /  1013.1hPa NE 5.4mph /  8.7km/h 5.4mph /  8.7km/h 84% 0in /  0.0mm
20:41 31.1 °F /  -0.5 °C 26.6 °F /  -3.0 °C 29.9in /  1013.1hPa NE 5.4mph /  8.7km/h 5.4mph /  8.7km/h 85% 0in /  0.0mm
20:46 31.1 °F /  -0.5 °C 26.6 °F /  -3.0 °C 29.9in /  1013.1hPa NE 5.4mph /  8.7km/h 5.4mph /  8.7km/h 85% 0in /  0.0mm
20:51 30.9 °F /  -0.6 °C 26.6 °F /  -3.0 °C 29.9in /  1013.1hPa NE 5.4mph /  8.7km/h 5.4mph /  8.7km/h 85% 0in /  0.0mm
20:56 30.9 °F /  -0.6 °C 26.6 °F /  -3.0 °C 29.9in /  1013.1hPa NE 5.4mph /  8.7km/h 5.4mph /  8.7km/h 85% 0in /  0.0mm
21:01 30.9 °F /  -0.6 °C 26.6 °F /  -3.0 °C 29.9in /  1014.1hPa NE 5.4mph /  8.7km/h 5.4mph /  8.7km/h 85% 0in /  0.0mm
21:06 30.7 °F /  -0.7 °C 26.6 °F /  -3.0 °C 29.9in /  1014.1hPa NE 5.4mph /  8.7km/h 5.4mph /  8.7km/h 85% 0in /  0.0mm
21:11 30.7 °F /  -0.7 °C 26.6 °F /  -3.0 °C 29.9in /  1014.1hPa NE 5.4mph /  8.7km/h 5.4mph /  8.7km/h 85% 0in /  0.0mm
21:16 30.7 °F /  -0.7 °C 26.6 °F /  -3.0 °C 29.9in /  1014.1hPa NE 5.4mph /  8.7km/h 5.4mph /  8.7km/h 85% 0in /  0.0mm
21:21 30.7 °F /  -0.7 °C 26.6 °F /  -3.0 °C 29.9in /  1014.1hPa NE 5.4mph /  8.7km/h 5.4mph /  8.7km/h 85% 0in /  0.0mm
21:26 30.7 °F /  -0.7 °C 26.6 °F /  -3.0 °C 29.9in /  1014.1hPa NE 5.4mph /  8.7km/h 5.4mph /  8.7km/h 86% 0in /  0.0mm
21:31 30.7 °F /  -0.7 °C 26.6 °F /  -3.0 °C 29.9in /  1014.1hPa NE 5.4mph /  8.7km/h 5.4mph /  8.7km/h 86% 0in /  0.0mm
21:36 30.7 °F /  -0.7 °C 26.6 °F /  -3.0 °C 29.9in /  1014.1hPa NE 5.4mph /  8.7km/h 5.4mph /  8.7km/h 86% 0in /  0.0mm
21:41 30.7 °F /  -0.7 °C 26.6 °F /  -3.0 °C 29.9in /  1014.1hPa NE 5.4mph /  8.7km/h 5.4mph /  8.7km/h 87% 0in /  0.0mm
21:47 30.7 °F /  -0.7 °C 26.6 °F /  -3.0 °C 29.9in /  1014.1hPa NE 5.4mph /  8.7km/h 5.4mph /  8.7km/h 87% 0in /  0.0mm
21:52 30.7 °F /  -0.7 °C 26.6 °F /  -3.0 °C 29.9in /  1014.1hPa NE 5.4mph /  8.7km/h 5.4mph /  8.7km/h 87% 0in /  0.0mm
21:57 30.9 °F /  -0.6 °C 26.6 °F /  -3.0 °C 29.9in /  1014.1hPa NE 5.4mph /  8.7km/h 5.4mph /  8.7km/h 87% 0in /  0.0mm
22:02 30.9 °F /  -0.6 °C 26.6 °F /  -3.0 °C 29.9in /  1014.1hPa NE 5.4mph /  8.7km/h 5.4mph /  8.7km/h 88% 0in /  0.0mm
22:07 31.1 °F /  -0.5 °C 26.6 °F /  -3.0 °C 29.9in /  1014.1hPa NE 5.4mph /  8.7km/h 5.4mph /  8.7km/h 88% 0in /  0.0mm
22:12 30.9 °F /  -0.6 °C 26.6 °F /  -3.0 °C 29.9in /  1014.1hPa NE 5.4mph /  8.7km/h 5.4mph /  8.7km/h 87% 0in /  0.0mm
22:17 30.9 °F /  -0.6 °C 26.6 °F /  -3.0 °C 29.9in /  1014.1hPa NE 5.4mph /  8.7km/h 5.4mph /  8.7km/h 87% 0in /  0.0mm
22:22 30.9 °F /  -0.6 °C 26.6 °F /  -3.0 °C 29.9in /  1014.1hPa NE 5.4mph /  8.7km/h 5.4mph /  8.7km/h 87% 0in /  0.0mm
22:27 30.9 °F /  -0.6 °C 26.6 °F /  -3.0 °C 29.9in /  1014.1hPa NE 5.4mph /  8.7km/h 5.4mph /  8.7km/h 86% 0in /  0.0mm
22:32 31.1 °F /  -0.5 °C 26.6 °F /  -3.0 °C 29.9in /  1014.1hPa NE 5.4mph /  8.7km/h 5.4mph /  8.7km/h 86% 0in /  0.0mm
22:37 31.1 °F /  -0.5 °C 26.6 °F /  -3.0 °C 29.9in /  1014.1hPa ENE 6.3mph /  10.1km/h 6.3mph /  10.1km/h 85% 0in /  0.0mm
22:42 31.1 °F /  -0.5 °C 26.6 °F /  -3.0 °C 29.9in /  1014.1hPa NNE 7.2mph /  11.6km/h 7.2mph /  11.6km/h 85% 0in /  0.0mm
22:47 31.1 °F /  -0.5 °C 26.6 °F /  -3.0 °C 29.9in /  1014.1hPa NE 8.1mph /  13.0km/h 8.1mph /  13.0km/h 85% 0in /  0.0mm
22:52 31.1 °F /  -0.5 °C 24.8 °F /  -4.0 °C 29.9in /  1014.1hPa NE 7.6mph /  12.2km/h 8.1mph /  13.0km/h 84% 0in /  0.0mm
22:57 31.1 °F /  -0.5 °C 24.8 °F /  -4.0 °C 29.9in /  1014.1hPa NE 8.5mph /  13.7km/h 10.3mph /  16.6km/h 83% 0in /  0.0mm
23:02 31.1 °F /  -0.5 °C 24.8 °F /  -4.0 °C 29.9in /  1014.1hPa NE 8.1mph /  13.0km/h 10.3mph /  16.6km/h 82% 0in /  0.0mm
23:07 31.1 °F /  -0.5 °C 24.8 °F /  -4.0 °C 29.9in /  1014.1hPa NE 8.7mph /  14.0km/h 8.7mph /  14.0km/h 82% 0in /  0.0mm
23:12 31.1 °F /  -0.5 °C 24.8 °F /  -4.0 °C 29.9in /  1014.1hPa NNE 7.4mph /  11.9km/h 8.7mph /  14.0km/h 81% 0in /  0.0mm
23:17 31.1 °F /  -0.5 °C 24.8 °F /  -4.0 °C 29.9in /  1014.1hPa NE 7.6mph /  12.2km/h 8.7mph /  14.0km/h 81% 0in /  0.0mm
23:22 30.9 °F /  -0.6 °C 24.8 °F /  -4.0 °C 29.9in /  1014.1hPa NE 8.7mph /  14.0km/h 8.7mph /  14.0km/h 81% 0in /  0.0mm
23:27 30.9 °F /  -0.6 °C 24.8 °F /  -4.0 °C 29.9in /  1014.1hPa NE 9.6mph /  15.4km/h 9.6mph /  15.4km/h 81% 0in /  0.0mm
23:32 30.9 °F /  -0.6 °C 24.8 °F /  -4.0 °C 29.9in /  1014.1hPa NE 5.4mph /  8.7km/h 9.6mph /  15.4km/h 82% 0in /  0.0mm
23:37 30.9 °F /  -0.6 °C 24.8 °F /  -4.0 °C 29.9in /  1014.1hPa NNE 8.5mph /  13.7km/h 8.5mph /  13.7km/h 82% 0in /  0.0mm
23:42 30.9 °F /  -0.6 °C 24.8 °F /  -4.0 °C 29.9in /  1014.1hPa NNE 8.5mph /  13.7km/h 8.5mph /  13.7km/h 82% 0in /  0.0mm
23:47 30.7 °F /  -0.7 °C 24.8 °F /  -4.0 °C 29.9in /  1014.1hPa NNE 8.5mph /  13.7km/h 8.5mph /  13.7km/h 82% 0in /  0.0mm
23:52 30.7 °F /  -0.7 °C 24.8 °F /  -4.0 °C 29.9in /  1014.1hPa NNE 8.5mph /  13.7km/h 8.5mph /  13.7km/h 81% 0in /  0.0mm
23:57 30.7 °F /  -0.7 °C 24.8 °F /  -4.0 °C 29.9in /  1014.1hPa NNE 5.4mph /  8.7km/h 8.5mph /  13.7km/h 81% 0in /  0.0mm
Données Historique de Météo Turbie

Mise a jour : 22/05/2018 04:20:13
Généré par Cumulus 1.9.4 (1099)